sensor_id;sensor_type;location;lat;lon;timestamp;temperature;humidity
45537;DHT22;31262;51.978;5.924;2022-07-10T00:00:27;20.00;56.40
45537;DHT22;31262;51.978;5.924;2022-07-10T00:02:52;20.00;56.40
45537;DHT22;31262;51.978;5.924;2022-07-10T00:05:18;20.00;56.60
45537;DHT22;31262;51.978;5.924;2022-07-10T00:07:45;20.00;56.60
45537;DHT22;31262;51.978;5.924;2022-07-10T00:10:11;20.00;56.70
45537;DHT22;31262;51.978;5.924;2022-07-10T00:12:37;20.00;56.80
45537;DHT22;31262;51.978;5.924;2022-07-10T00:15:06;20.10;57.00
45537;DHT22;31262;51.978;5.924;2022-07-10T00:17:32;20.10;57.00
45537;DHT22;31262;51.978;5.924;2022-07-10T00:19:58;20.10;57.00
45537;DHT22;31262;51.978;5.924;2022-07-10T00:22:24;20.10;57.10
45537;DHT22;31262;51.978;5.924;2022-07-10T00:24:50;20.10;57.10
45537;DHT22;31262;51.978;5.924;2022-07-10T00:27:16;20.10;57.10
45537;DHT22;31262;51.978;5.924;2022-07-10T00:29:43;20.20;57.20
45537;DHT22;31262;51.978;5.924;2022-07-10T00:32:09;20.20;57.30
45537;DHT22;31262;51.978;5.924;2022-07-10T00:34:34;20.20;57.40
45537;DHT22;31262;51.978;5.924;2022-07-10T00:37:01;20.20;57.40
45537;DHT22;31262;51.978;5.924;2022-07-10T00:39:26;20.20;57.40
45537;DHT22;31262;51.978;5.924;2022-07-10T00:41:52;20.20;57.40
45537;DHT22;31262;51.978;5.924;2022-07-10T00:44:18;20.10;57.50
45537;DHT22;31262;51.978;5.924;2022-07-10T00:46:43;20.10;57.60
45537;DHT22;31262;51.978;5.924;2022-07-10T00:49:09;20.00;57.70
45537;DHT22;31262;51.978;5.924;2022-07-10T00:51:35;20.00;57.80
45537;DHT22;31262;51.978;5.924;2022-07-10T00:54:01;20.00;57.90
45537;DHT22;31262;51.978;5.924;2022-07-10T00:56:28;20.00;57.90
45537;DHT22;31262;51.978;5.924;2022-07-10T00:58:54;20.00;57.80
45537;DHT22;31262;51.978;5.924;2022-07-10T01:01:20;20.00;57.80
45537;DHT22;31262;51.978;5.924;2022-07-10T01:03:48;20.00;57.90
45537;DHT22;31262;51.978;5.924;2022-07-10T01:06:15;19.90;57.90
45537;DHT22;31262;51.978;5.924;2022-07-10T01:08:41;20.00;58.00
45537;DHT22;31262;51.978;5.924;2022-07-10T01:11:08;20.00;57.80
45537;DHT22;31262;51.978;5.924;2022-07-10T01:13:33;20.00;57.90
45537;DHT22;31262;51.978;5.924;2022-07-10T01:15:59;20.00;57.80
45537;DHT22;31262;51.978;5.924;2022-07-10T01:18:25;20.00;57.60
45537;DHT22;31262;51.978;5.924;2022-07-10T01:20:54;20.00;57.50
45537;DHT22;31262;51.978;5.924;2022-07-10T01:23:21;20.10;57.40
45537;DHT22;31262;51.978;5.924;2022-07-10T01:25:47;20.00;57.50
45537;DHT22;31262;51.978;5.924;2022-07-10T01:28:13;20.00;57.70
45537;DHT22;31262;51.978;5.924;2022-07-10T01:30:39;19.90;57.70
45537;DHT22;31262;51.978;5.924;2022-07-10T01:33:04;19.90;57.80
45537;DHT22;31262;51.978;5.924;2022-07-10T01:35:30;19.80;57.70
45537;DHT22;31262;51.978;5.924;2022-07-10T01:37:56;19.80;57.90
45537;DHT22;31262;51.978;5.924;2022-07-10T01:40:21;19.80;57.90
45537;DHT22;31262;51.978;5.924;2022-07-10T01:42:47;19.80;58.00
45537;DHT22;31262;51.978;5.924;2022-07-10T01:45:13;19.70;57.90
45537;DHT22;31262;51.978;5.924;2022-07-10T01:47:41;19.70;58.00
45537;DHT22;31262;51.978;5.924;2022-07-10T01:50:07;19.70;58.10
45537;DHT22;31262;51.978;5.924;2022-07-10T01:52:33;19.70;57.90
45537;DHT22;31262;51.978;5.924;2022-07-10T01:54:58;19.80;58.00
45537;DHT22;31262;51.978;5.924;2022-07-10T01:57:24;19.70;58.00
45537;DHT22;31262;51.978;5.924;2022-07-10T01:59:50;19.70;57.90
45537;DHT22;31262;51.978;5.924;2022-07-10T02:02:15;19.70;57.90
45537;DHT22;31262;51.978;5.924;2022-07-10T02:04:41;19.70;58.10
45537;DHT22;31262;51.978;5.924;2022-07-10T02:07:17;19.70;58.00
45537;DHT22;31262;51.978;5.924;2022-07-10T02:09:44;19.70;58.00
45537;DHT22;31262;51.978;5.924;2022-07-10T02:12:12;19.60;58.30
45537;DHT22;31262;51.978;5.924;2022-07-10T02:14:39;19.60;58.50
45537;DHT22;31262;51.978;5.924;2022-07-10T02:17:06;19.50;58.70
45537;DHT22;31262;51.978;5.924;2022-07-10T02:19:32;19.50;58.80
45537;DHT22;31262;51.978;5.924;2022-07-10T02:21:59;19.50;59.10
45537;DHT22;31262;51.978;5.924;2022-07-10T02:24:24;19.50;59.00
45537;DHT22;31262;51.978;5.924;2022-07-10T02:26:50;19.50;58.90
45537;DHT22;31262;51.978;5.924;2022-07-10T02:29:16;19.50;58.70
45537;DHT22;31262;51.978;5.924;2022-07-10T02:31:43;19.50;58.90
45537;DHT22;31262;51.978;5.924;2022-07-10T02:34:12;19.50;59.10
45537;DHT22;31262;51.978;5.924;2022-07-10T02:36:40;19.40;58.90
45537;DHT22;31262;51.978;5.924;2022-07-10T02:39:07;19.40;59.10
45537;DHT22;31262;51.978;5.924;2022-07-10T02:41:32;19.40;59.20
45537;DHT22;31262;51.978;5.924;2022-07-10T02:43:58;19.40;59.30
45537;DHT22;31262;51.978;5.924;2022-07-10T02:46:25;19.40;59.30
45537;DHT22;31262;51.978;5.924;2022-07-10T02:48:50;19.40;59.30
45537;DHT22;31262;51.978;5.924;2022-07-10T02:51:16;19.30;59.50
45537;DHT22;31262;51.978;5.924;2022-07-10T02:53:42;19.30;59.60
45537;DHT22;31262;51.978;5.924;2022-07-10T02:56:07;19.20;60.00
45537;DHT22;31262;51.978;5.924;2022-07-10T02:58:34;19.20;60.10
45537;DHT22;31262;51.978;5.924;2022-07-10T03:00:59;19.30;60.30
45537;DHT22;31262;51.978;5.924;2022-07-10T03:03:25;19.40;60.10
45537;DHT22;31262;51.978;5.924;2022-07-10T03:05:51;19.40;60.00
45537;DHT22;31262;51.978;5.924;2022-07-10T03:08:16;19.40;59.90
45537;DHT22;31262;51.978;5.924;2022-07-10T03:10:42;19.40;60.10
45537;DHT22;31262;51.978;5.924;2022-07-10T03:13:08;19.40;60.10
45537;DHT22;31262;51.978;5.924;2022-07-10T03:15:33;19.60;60.00
45537;DHT22;31262;51.978;5.924;2022-07-10T03:17:59;19.70;59.80
45537;DHT22;31262;51.978;5.924;2022-07-10T03:20:24;19.80;59.50
45537;DHT22;31262;51.978;5.924;2022-07-10T03:22:50;19.80;59.50
45537;DHT22;31262;51.978;5.924;2022-07-10T03:25:16;19.80;59.50
45537;DHT22;31262;51.978;5.924;2022-07-10T03:27:43;19.80;59.70
45537;DHT22;31262;51.978;5.924;2022-07-10T03:30:10;19.70;59.70
45537;DHT22;31262;51.978;5.924;2022-07-10T03:32:36;19.60;60.50
45537;DHT22;31262;51.978;5.924;2022-07-10T03:35:02;19.50;60.00
45537;DHT22;31262;51.978;5.924;2022-07-10T03:37:27;19.50;60.10
45537;DHT22;31262;51.978;5.924;2022-07-10T03:39:53;19.50;60.20
45537;DHT22;31262;51.978;5.924;2022-07-10T03:42:19;19.50;60.20
45537;DHT22;31262;51.978;5.924;2022-07-10T03:44:45;19.50;60.20
45537;DHT22;31262;51.978;5.924;2022-07-10T03:47:11;19.50;60.20
45537;DHT22;31262;51.978;5.924;2022-07-10T03:49:37;19.40;60.30
45537;DHT22;31262;51.978;5.924;2022-07-10T03:52:07;19.40;60.50
45537;DHT22;31262;51.978;5.924;2022-07-10T03:54:32;19.30;60.60
45537;DHT22;31262;51.978;5.924;2022-07-10T03:56:58;19.30;60.60
45537;DHT22;31262;51.978;5.924;2022-07-10T03:59:43;19.40;60.70
45537;DHT22;31262;51.978;5.924;2022-07-10T04:02:09;19.40;60.60
45537;DHT22;31262;51.978;5.924;2022-07-10T04:04:34;19.40;60.70
45537;DHT22;31262;51.978;5.924;2022-07-10T04:07:00;19.40;60.70
45537;DHT22;31262;51.978;5.924;2022-07-10T04:09:25;19.40;60.90
45537;DHT22;31262;51.978;5.924;2022-07-10T04:11:51;19.40;60.90
45537;DHT22;31262;51.978;5.924;2022-07-10T04:14:17;19.40;60.90
45537;DHT22;31262;51.978;5.924;2022-07-10T04:16:42;19.40;60.80
45537;DHT22;31262;51.978;5.924;2022-07-10T04:19:08;19.40;60.80
45537;DHT22;31262;51.978;5.924;2022-07-10T04:21:34;19.50;60.80
45537;DHT22;31262;51.978;5.924;2022-07-10T04:24:00;19.40;60.90
45537;DHT22;31262;51.978;5.924;2022-07-10T04:26:26;19.50;60.90
45537;DHT22;31262;51.978;5.924;2022-07-10T04:28:52;19.50;61.00
45537;DHT22;31262;51.978;5.924;2022-07-10T04:31:17;19.40;61.00
45537;DHT22;31262;51.978;5.924;2022-07-10T04:33:43;19.40;61.20
45537;DHT22;31262;51.978;5.924;2022-07-10T04:36:08;19.40;61.30
45537;DHT22;31262;51.978;5.924;2022-07-10T04:38:34;19.40;61.20
45537;DHT22;31262;51.978;5.924;2022-07-10T04:41:00;19.40;61.20
45537;DHT22;31262;51.978;5.924;2022-07-10T04:43:26;19.40;61.20
45537;DHT22;31262;51.978;5.924;2022-07-10T04:45:52;19.30;61.30
45537;DHT22;31262;51.978;5.924;2022-07-10T04:48:17;19.30;61.30
45537;DHT22;31262;51.978;5.924;2022-07-10T04:50:43;19.30;61.30
45537;DHT22;31262;51.978;5.924;2022-07-10T04:53:09;19.30;61.30
45537;DHT22;31262;51.978;5.924;2022-07-10T04:55:34;19.30;61.50
45537;DHT22;31262;51.978;5.924;2022-07-10T04:58:00;19.20;62.10
45537;DHT22;31262;51.978;5.924;2022-07-10T05:00:26;19.20;61.50
45537;DHT22;31262;51.978;5.924;2022-07-10T05:02:52;19.20;61.70
45537;DHT22;31262;51.978;5.924;2022-07-10T05:05:18;19.30;61.70
45537;DHT22;31262;51.978;5.924;2022-07-10T05:07:43;19.30;61.70
45537;DHT22;31262;51.978;5.924;2022-07-10T05:10:09;19.30;61.80
45537;DHT22;31262;51.978;5.924;2022-07-10T05:12:35;19.30;61.70
45537;DHT22;31262;51.978;5.924;2022-07-10T05:15:01;19.30;61.70
45537;DHT22;31262;51.978;5.924;2022-07-10T05:17:27;19.20;61.60
45537;DHT22;31262;51.978;5.924;2022-07-10T05:19:57;19.20;61.70
45537;DHT22;31262;51.978;5.924;2022-07-10T05:22:23;19.30;61.50
45537;DHT22;31262;51.978;5.924;2022-07-10T05:24:49;19.30;61.40
45537;DHT22;31262;51.978;5.924;2022-07-10T05:27:15;19.30;61.50
45537;DHT22;31262;51.978;5.924;2022-07-10T05:29:43;19.30;61.40
45537;DHT22;31262;51.978;5.924;2022-07-10T05:32:09;19.30;61.60
45537;DHT22;31262;51.978;5.924;2022-07-10T05:34:34;19.40;61.50
45537;DHT22;31262;51.978;5.924;2022-07-10T05:37:00;19.40;61.50
45537;DHT22;31262;51.978;5.924;2022-07-10T05:39:25;19.50;61.40
45537;DHT22;31262;51.978;5.924;2022-07-10T05:41:52;19.50;61.40
45537;DHT22;31262;51.978;5.924;2022-07-10T05:44:18;19.60;61.20
45537;DHT22;31262;51.978;5.924;2022-07-10T05:46:45;19.60;61.20
45537;DHT22;31262;51.978;5.924;2022-07-10T05:49:11;19.60;61.40
45537;DHT22;31262;51.978;5.924;2022-07-10T05:51:36;19.60;61.40
45537;DHT22;31262;51.978;5.924;2022-07-10T05:54:02;19.70;61.60
45537;DHT22;31262;51.978;5.924;2022-07-10T05:56:29;19.70;61.60
45537;DHT22;31262;51.978;5.924;2022-07-10T05:58:54;19.70;61.50
45537;DHT22;31262;51.978;5.924;2022-07-10T06:01:24;19.70;61.30
45537;DHT22;31262;51.978;5.924;2022-07-10T06:03:49;19.70;61.50
45537;DHT22;31262;51.978;5.924;2022-07-10T06:06:15;19.70;61.70
45537;DHT22;31262;51.978;5.924;2022-07-10T06:08:44;19.70;61.60
45537;DHT22;31262;51.978;5.924;2022-07-10T06:11:11;19.70;61.80
45537;DHT22;31262;51.978;5.924;2022-07-10T06:13:37;19.60;61.70
45537;DHT22;31262;51.978;5.924;2022-07-10T06:16:03;19.60;61.80
45537;DHT22;31262;51.978;5.924;2022-07-10T06:18:30;19.60;62.00
45537;DHT22;31262;51.978;5.924;2022-07-10T06:20:56;19.60;62.30
45537;DHT22;31262;51.978;5.924;2022-07-10T06:23:22;19.50;62.50
45537;DHT22;31262;51.978;5.924;2022-07-10T06:25:48;19.50;62.70
45537;DHT22;31262;51.978;5.924;2022-07-10T06:28:18;19.50;62.90
45537;DHT22;31262;51.978;5.924;2022-07-10T06:30:45;19.60;63.10
45537;DHT22;31262;51.978;5.924;2022-07-10T06:33:12;19.60;63.20
45537;DHT22;31262;51.978;5.924;2022-07-10T06:35:38;19.60;63.30
45537;DHT22;31262;51.978;5.924;2022-07-10T06:38:03;19.60;63.40
45537;DHT22;31262;51.978;5.924;2022-07-10T06:40:29;19.60;63.60
45537;DHT22;31262;51.978;5.924;2022-07-10T06:42:59;19.60;64.00
45537;DHT22;31262;51.978;5.924;2022-07-10T06:45:25;19.70;64.30
45537;DHT22;31262;51.978;5.924;2022-07-10T06:47:51;19.70;64.50
45537;DHT22;31262;51.978;5.924;2022-07-10T06:50:25;19.60;65.00
45537;DHT22;31262;51.978;5.924;2022-07-10T06:52:51;19.60;65.20
45537;DHT22;31262;51.978;5.924;2022-07-10T06:55:20;19.60;65.60
45537;DHT22;31262;51.978;5.924;2022-07-10T06:57:46;19.60;65.80
45537;DHT22;31262;51.978;5.924;2022-07-10T07:00:12;19.30;65.60
45537;DHT22;31262;51.978;5.924;2022-07-10T07:02:38;19.40;66.70
45537;DHT22;31262;51.978;5.924;2022-07-10T07:05:05;19.40;67.10
45537;DHT22;31262;51.978;5.924;2022-07-10T07:07:31;19.40;67.20
45537;DHT22;31262;51.978;5.924;2022-07-10T07:09:59;19.30;67.50
45537;DHT22;31262;51.978;5.924;2022-07-10T07:12:25;19.30;67.80
45537;DHT22;31262;51.978;5.924;2022-07-10T07:14:50;19.30;68.00
45537;DHT22;31262;51.978;5.924;2022-07-10T07:17:16;19.30;68.10
45537;DHT22;31262;51.978;5.924;2022-07-10T07:19:50;19.40;67.40
45537;DHT22;31262;51.978;5.924;2022-07-10T07:22:34;19.60;67.40
45537;DHT22;31262;51.978;5.924;2022-07-10T07:25:18;19.70;66.40
45537;DHT22;31262;51.978;5.924;2022-07-10T07:27:44;19.90;66.00
45537;DHT22;31262;51.978;5.924;2022-07-10T07:30:13;20.00;66.00
45537;DHT22;31262;51.978;5.924;2022-07-10T07:32:43;20.20;66.20
45537;DHT22;31262;51.978;5.924;2022-07-10T07:35:14;20.30;66.40
45537;DHT22;31262;51.978;5.924;2022-07-10T07:37:41;20.20;66.50
45537;DHT22;31262;51.978;5.924;2022-07-10T07:40:15;20.10;66.80
45537;DHT22;31262;51.978;5.924;2022-07-10T07:42:41;20.10;67.20
45537;DHT22;31262;51.978;5.924;2022-07-10T07:45:08;19.90;67.90
45537;DHT22;31262;51.978;5.924;2022-07-10T07:47:45;19.90;68.10
45537;DHT22;31262;51.978;5.924;2022-07-10T07:50:13;19.90;68.00
45537;DHT22;31262;51.978;5.924;2022-07-10T07:52:39;19.80;68.60
45537;DHT22;31262;51.978;5.924;2022-07-10T07:55:09;19.80;69.00
45537;DHT22;31262;51.978;5.924;2022-07-10T07:57:36;19.80;69.30
45537;DHT22;31262;51.978;5.924;2022-07-10T08:00:02;19.70;69.50
45537;DHT22;31262;51.978;5.924;2022-07-10T08:02:29;19.60;69.80
45537;DHT22;31262;51.978;5.924;2022-07-10T08:04:54;19.60;69.90
45537;DHT22;31262;51.978;5.924;2022-07-10T08:07:20;19.60;70.10
45537;DHT22;31262;51.978;5.924;2022-07-10T08:09:45;19.60;70.00
45537;DHT22;31262;51.978;5.924;2022-07-10T08:12:11;19.50;70.90
45537;DHT22;31262;51.978;5.924;2022-07-10T08:14:37;19.40;70.80
45537;DHT22;31262;51.978;5.924;2022-07-10T08:17:03;19.40;70.90
45537;DHT22;31262;51.978;5.924;2022-07-10T08:19:29;19.40;71.20
45537;DHT22;31262;51.978;5.924;2022-07-10T08:21:55;19.50;71.00
45537;DHT22;31262;51.978;5.924;2022-07-10T08:24:21;19.60;70.90
45537;DHT22;31262;51.978;5.924;2022-07-10T08:26:46;19.70;70.70
45537;DHT22;31262;51.978;5.924;2022-07-10T08:29:12;19.80;70.80
45537;DHT22;31262;51.978;5.924;2022-07-10T08:31:38;19.80;70.90
45537;DHT22;31262;51.978;5.924;2022-07-10T08:34:05;19.90;70.60
45537;DHT22;31262;51.978;5.924;2022-07-10T08:36:30;19.90;70.40
45537;DHT22;31262;51.978;5.924;2022-07-10T08:38:56;20.00;70.40
45537;DHT22;31262;51.978;5.924;2022-07-10T08:41:25;20.00;70.40
45537;DHT22;31262;51.978;5.924;2022-07-10T08:43:52;20.00;70.00
45537;DHT22;31262;51.978;5.924;2022-07-10T08:46:18;20.00;70.20
45537;DHT22;31262;51.978;5.924;2022-07-10T08:48:47;20.00;70.30
45537;DHT22;31262;51.978;5.924;2022-07-10T08:51:23;20.10;70.20
45537;DHT22;31262;51.978;5.924;2022-07-10T08:53:51;20.10;69.90
45537;DHT22;31262;51.978;5.924;2022-07-10T08:56:16;20.10;69.80
45537;DHT22;31262;51.978;5.924;2022-07-10T08:58:42;20.20;69.80
45537;DHT22;31262;51.978;5.924;2022-07-10T09:01:09;20.20;69.70
45537;DHT22;31262;51.978;5.924;2022-07-10T09:03:35;20.20;69.50
45537;DHT22;31262;51.978;5.924;2022-07-10T09:06:04;20.30;69.60
45537;DHT22;31262;51.978;5.924;2022-07-10T09:08:30;20.30;69.70
45537;DHT22;31262;51.978;5.924;2022-07-10T09:13:52;20.60;69.90
45537;DHT22;31262;51.978;5.924;2022-07-10T09:16:40;20.60;69.50
45537;DHT22;31262;51.978;5.924;2022-07-10T09:21:46;20.90;68.30
45537;DHT22;31262;51.978;5.924;2022-07-10T09:24:12;20.90;68.40
45537;DHT22;31262;51.978;5.924;2022-07-10T09:26:39;20.90;67.80
45537;DHT22;31262;51.978;5.924;2022-07-10T09:29:11;20.90;67.80
45537;DHT22;31262;51.978;5.924;2022-07-10T09:31:54;21.00;67.60
45537;DHT22;31262;51.978;5.924;2022-07-10T09:34:39;21.00;67.40
45537;DHT22;31262;51.978;5.924;2022-07-10T09:39:57;21.10;66.70
45537;DHT22;31262;51.978;5.924;2022-07-10T09:42:34;21.10;66.00
45537;DHT22;31262;51.978;5.924;2022-07-10T09:47:38;21.10;65.40
45537;DHT22;31262;51.978;5.924;2022-07-10T09:50:20;21.10;65.30
45537;DHT22;31262;51.978;5.924;2022-07-10T09:52:49;21.30;65.00
45537;DHT22;31262;51.978;5.924;2022-07-10T09:55:16;21.30;65.20
45537;DHT22;31262;51.978;5.924;2022-07-10T09:57:43;21.30;65.10
45537;DHT22;31262;51.978;5.924;2022-07-10T10:00:11;21.50;65.30
45537;DHT22;31262;51.978;5.924;2022-07-10T10:02:40;21.50;64.90
45537;DHT22;31262;51.978;5.924;2022-07-10T10:05:07;21.70;64.40
45537;DHT22;31262;51.978;5.924;2022-07-10T10:07:34;21.70;64.10
45537;DHT22;31262;51.978;5.924;2022-07-10T10:10:04;21.80;63.30
45537;DHT22;31262;51.978;5.924;2022-07-10T10:12:47;21.90;63.20
45537;DHT22;31262;51.978;5.924;2022-07-10T10:15:14;21.90;63.00
45537;DHT22;31262;51.978;5.924;2022-07-10T10:17:41;21.80;62.60
45537;DHT22;31262;51.978;5.924;2022-07-10T10:20:08;21.80;62.90
45537;DHT22;31262;51.978;5.924;2022-07-10T10:22:55;21.90;63.40
45537;DHT22;31262;51.978;5.924;2022-07-10T10:25:24;22.10;63.10
45537;DHT22;31262;51.978;5.924;2022-07-10T10:27:50;22.20;62.60
45537;DHT22;31262;51.978;5.924;2022-07-10T10:30:16;22.50;61.80
45537;DHT22;31262;51.978;5.924;2022-07-10T10:32:43;22.60;61.10
45537;DHT22;31262;51.978;5.924;2022-07-10T10:35:08;22.70;60.30
45537;DHT22;31262;51.978;5.924;2022-07-10T10:37:40;22.70;59.80
45537;DHT22;31262;51.978;5.924;2022-07-10T10:40:11;22.80;59.70
45537;DHT22;31262;51.978;5.924;2022-07-10T10:42:54;22.80;59.60
45537;DHT22;31262;51.978;5.924;2022-07-10T10:45:31;22.80;59.30
45537;DHT22;31262;51.978;5.924;2022-07-10T10:48:04;22.90;59.30
45537;DHT22;31262;51.978;5.924;2022-07-10T10:50:38;23.00;59.40
45537;DHT22;31262;51.978;5.924;2022-07-10T10:53:35;23.00;58.60
45537;DHT22;31262;51.978;5.924;2022-07-10T11:01:06;22.90;58.20
45537;DHT22;31262;51.978;5.924;2022-07-10T11:06:39;22.90;58.00
45537;DHT22;31262;51.978;5.924;2022-07-10T11:09:41;23.00;57.80
45537;DHT22;31262;51.978;5.924;2022-07-10T11:12:10;22.90;57.90
45537;DHT22;31262;51.978;5.924;2022-07-10T11:14:46;23.00;58.10
45537;DHT22;31262;51.978;5.924;2022-07-10T11:17:14;23.10;58.10
45537;DHT22;31262;51.978;5.924;2022-07-10T11:19:40;23.10;57.80
45537;DHT22;31262;51.978;5.924;2022-07-10T11:22:13;23.20;57.60
45537;DHT22;31262;51.978;5.924;2022-07-10T11:30:13;23.50;57.40
45537;DHT22;31262;51.978;5.924;2022-07-10T11:32:39;23.50;57.30
45537;DHT22;31262;51.978;5.924;2022-07-10T11:35:12;23.50;57.10
45537;DHT22;31262;51.978;5.924;2022-07-10T11:37:50;23.60;57.10
45537;DHT22;31262;51.978;5.924;2022-07-10T11:40:16;23.60;57.10
45537;DHT22;31262;51.978;5.924;2022-07-10T11:42:55;23.60;57.30
45537;DHT22;31262;51.978;5.924;2022-07-10T11:45:31;23.70;56.90
45537;DHT22;31262;51.978;5.924;2022-07-10T11:47:59;23.60;56.50
45537;DHT22;31262;51.978;5.924;2022-07-10T11:50:27;23.50;56.50
45537;DHT22;31262;51.978;5.924;2022-07-10T11:52:59;23.50;56.50
45537;DHT22;31262;51.978;5.924;2022-07-10T11:55:26;23.40;56.60
45537;DHT22;31262;51.978;5.924;2022-07-10T11:57:54;23.40;56.80
45537;DHT22;31262;51.978;5.924;2022-07-10T12:00:27;23.40;56.80
45537;DHT22;31262;51.978;5.924;2022-07-10T12:02:54;23.40;57.00
45537;DHT22;31262;51.978;5.924;2022-07-10T12:05:47;23.40;57.00
45537;DHT22;31262;51.978;5.924;2022-07-10T12:08:14;23.40;57.30
45537;DHT22;31262;51.978;5.924;2022-07-10T12:10:39;23.40;57.00
45537;DHT22;31262;51.978;5.924;2022-07-10T12:13:15;23.50;57.10
45537;DHT22;31262;51.978;5.924;2022-07-10T12:15:43;23.60;57.00
45537;DHT22;31262;51.978;5.924;2022-07-10T12:18:16;23.60;56.60
45537;DHT22;31262;51.978;5.924;2022-07-10T12:20:42;23.60;56.70
45537;DHT22;31262;51.978;5.924;2022-07-10T12:23:11;23.60;56.60
45537;DHT22;31262;51.978;5.924;2022-07-10T12:25:41;23.50;56.50
45537;DHT22;31262;51.978;5.924;2022-07-10T12:28:06;23.50;56.30
45537;DHT22;31262;51.978;5.924;2022-07-10T12:30:40;23.50;56.40
45537;DHT22;31262;51.978;5.924;2022-07-10T12:33:09;23.50;56.30
45537;DHT22;31262;51.978;5.924;2022-07-10T12:38:24;23.50;56.10
45537;DHT22;31262;51.978;5.924;2022-07-10T12:40:51;23.50;56.40
45537;DHT22;31262;51.978;5.924;2022-07-10T12:43:29;23.50;56.50
45537;DHT22;31262;51.978;5.924;2022-07-10T12:46:11;23.60;56.50
45537;DHT22;31262;51.978;5.924;2022-07-10T12:48:37;23.70;56.50
45537;DHT22;31262;51.978;5.924;2022-07-10T12:51:25;23.70;56.50
45537;DHT22;31262;51.978;5.924;2022-07-10T12:53:52;23.80;56.50
45537;DHT22;31262;51.978;5.924;2022-07-10T12:56:34;23.80;56.20
45537;DHT22;31262;51.978;5.924;2022-07-10T12:59:01;23.90;55.60
45537;DHT22;31262;51.978;5.924;2022-07-10T13:01:28;23.80;55.50
45537;DHT22;31262;51.978;5.924;2022-07-10T13:04:01;23.80;55.30
45537;DHT22;31262;51.978;5.924;2022-07-10T13:06:31;23.90;55.20
45537;DHT22;31262;51.978;5.924;2022-07-10T13:08:57;23.90;55.30
45537;DHT22;31262;51.978;5.924;2022-07-10T13:11:24;23.90;55.30
45537;DHT22;31262;51.978;5.924;2022-07-10T13:13:50;24.00;54.80
45537;DHT22;31262;51.978;5.924;2022-07-10T13:16:16;24.00;54.50
45537;DHT22;31262;51.978;5.924;2022-07-10T13:18:42;24.10;54.80
45537;DHT22;31262;51.978;5.924;2022-07-10T13:21:09;24.10;54.70
45537;DHT22;31262;51.978;5.924;2022-07-10T13:23:36;24.10;54.60
45537;DHT22;31262;51.978;5.924;2022-07-10T13:26:03;24.10;54.60
45537;DHT22;31262;51.978;5.924;2022-07-10T13:28:30;24.20;54.70
45537;DHT22;31262;51.978;5.924;2022-07-10T13:30:56;24.30;54.50
45537;DHT22;31262;51.978;5.924;2022-07-10T13:33:21;24.30;54.40
45537;DHT22;31262;51.978;5.924;2022-07-10T13:35:48;24.40;54.10
45537;DHT22;31262;51.978;5.924;2022-07-10T13:38:14;24.40;53.90
45537;DHT22;31262;51.978;5.924;2022-07-10T13:40:40;24.40;53.60
45537;DHT22;31262;51.978;5.924;2022-07-10T13:43:06;24.50;53.60
45537;DHT22;31262;51.978;5.924;2022-07-10T13:45:35;24.50;53.60
45537;DHT22;31262;51.978;5.924;2022-07-10T13:48:09;24.50;52.90
45537;DHT22;31262;51.978;5.924;2022-07-10T13:50:37;24.50;52.80
45537;DHT22;31262;51.978;5.924;2022-07-10T13:53:03;24.60;52.50
45537;DHT22;31262;51.978;5.924;2022-07-10T13:55:29;24.60;52.60
45537;DHT22;31262;51.978;5.924;2022-07-10T13:57:55;24.70;52.30
45537;DHT22;31262;51.978;5.924;2022-07-10T14:00:20;24.80;52.10
45537;DHT22;31262;51.978;5.924;2022-07-10T14:02:46;24.80;51.70
45537;DHT22;31262;51.978;5.924;2022-07-10T14:05:11;24.90;52.10
45537;DHT22;31262;51.978;5.924;2022-07-10T14:07:37;25.00;51.50
45537;DHT22;31262;51.978;5.924;2022-07-10T14:10:03;25.00;51.60
45537;DHT22;31262;51.978;5.924;2022-07-10T14:12:30;25.10;51.10
45537;DHT22;31262;51.978;5.924;2022-07-10T14:14:57;25.10;50.80
45537;DHT22;31262;51.978;5.924;2022-07-10T14:17:23;25.20;51.30
45537;DHT22;31262;51.978;5.924;2022-07-10T14:19:49;25.20;50.50
45537;DHT22;31262;51.978;5.924;2022-07-10T14:22:15;25.20;49.90
45537;DHT22;31262;51.978;5.924;2022-07-10T14:24:41;25.20;50.00
45537;DHT22;31262;51.978;5.924;2022-07-10T14:27:07;25.20;50.50
45537;DHT22;31262;51.978;5.924;2022-07-10T14:29:32;25.20;50.70
45537;DHT22;31262;51.978;5.924;2022-07-10T14:31:58;25.20;50.70
45537;DHT22;31262;51.978;5.924;2022-07-10T14:34:24;25.30;50.00
45537;DHT22;31262;51.978;5.924;2022-07-10T14:36:50;25.40;50.30
45537;DHT22;31262;51.978;5.924;2022-07-10T14:39:16;25.40;50.00
45537;DHT22;31262;51.978;5.924;2022-07-10T14:41:42;25.40;49.70
45537;DHT22;31262;51.978;5.924;2022-07-10T14:44:07;25.40;49.20
45537;DHT22;31262;51.978;5.924;2022-07-10T14:46:33;25.40;49.50
45537;DHT22;31262;51.978;5.924;2022-07-10T14:48:59;25.40;49.40
45537;DHT22;31262;51.978;5.924;2022-07-10T14:51:25;25.30;49.30
45537;DHT22;31262;51.978;5.924;2022-07-10T14:53:51;25.40;49.80
45537;DHT22;31262;51.978;5.924;2022-07-10T14:56:16;25.30;49.70
45537;DHT22;31262;51.978;5.924;2022-07-10T14:58:42;25.30;49.30
45537;DHT22;31262;51.978;5.924;2022-07-10T15:01:08;25.30;49.50
45537;DHT22;31262;51.978;5.924;2022-07-10T15:03:34;25.30;49.30
45537;DHT22;31262;51.978;5.924;2022-07-10T15:05:59;25.30;49.00
45537;DHT22;31262;51.978;5.924;2022-07-10T15:08:26;25.20;49.10
45537;DHT22;31262;51.978;5.924;2022-07-10T15:10:52;25.20;49.30
45537;DHT22;31262;51.978;5.924;2022-07-10T15:13:18;25.30;49.70
45537;DHT22;31262;51.978;5.924;2022-07-10T15:15:44;25.40;49.60
45537;DHT22;31262;51.978;5.924;2022-07-10T15:18:10;25.50;49.80
45537;DHT22;31262;51.978;5.924;2022-07-10T15:20:36;25.50;49.60
45537;DHT22;31262;51.978;5.924;2022-07-10T15:23:03;25.40;49.50
45537;DHT22;31262;51.978;5.924;2022-07-10T15:25:29;25.40;49.70
45537;DHT22;31262;51.978;5.924;2022-07-10T15:27:55;25.40;49.70
45537;DHT22;31262;51.978;5.924;2022-07-10T15:30:21;25.40;49.30
45537;DHT22;31262;51.978;5.924;2022-07-10T15:32:47;25.40;49.60
45537;DHT22;31262;51.978;5.924;2022-07-10T15:35:13;25.40;49.70
45537;DHT22;31262;51.978;5.924;2022-07-10T15:37:38;25.40;49.70
45537;DHT22;31262;51.978;5.924;2022-07-10T15:40:05;25.40;49.90
45537;DHT22;31262;51.978;5.924;2022-07-10T15:42:31;25.40;49.80
45537;DHT22;31262;51.978;5.924;2022-07-10T15:44:57;25.40;50.00
45537;DHT22;31262;51.978;5.924;2022-07-10T15:47:23;25.40;50.10
45537;DHT22;31262;51.978;5.924;2022-07-10T15:49:49;25.40;50.10
45537;DHT22;31262;51.978;5.924;2022-07-10T15:52:14;25.30;50.20
45537;DHT22;31262;51.978;5.924;2022-07-10T15:54:40;25.30;50.50
45537;DHT22;31262;51.978;5.924;2022-07-10T15:57:07;25.30;50.50
45537;DHT22;31262;51.978;5.924;2022-07-10T15:59:33;25.40;50.40